Time;durP1;ratioP1;P1;durP2;ratioP2;P2;SDS_P1;SDS_P2;PMS_P1;PMS_P2;Temp;Humidity;BMP_temperature;BMP_pressure;BME280_temperature;BME280_humidity;BME280_pressure;Samples;Min_cycle;Max_cycle;Signal;HPM_P1;HPM_P2
2021/10/26 00:01:00;;;;;;;;;;;;;;;;;;2077374;28;1311;-81
2021/10/26 00:02:01;;;;;;;;;;;;;;;;;;2082805;28;878;-81
2021/10/26 00:03:02;;;;;;;;;;;;;;;;;;2078778;28;1842;-81
2021/10/26 00:04:03;;;;;;;;;;;;;;;;;;2066359;28;1414;-81
2021/10/26 00:05:06;;;;;;;;;;;;;;;;;;2066302;28;1512;-81
2021/10/26 00:06:07;;;;;;;;;;;;;;;;;;2070190;28;1898;-80
2021/10/26 00:07:08;;;;;;;;;;;;;;;;;;2074260;28;1229;-81
2021/10/26 00:08:09;;;;;;;;;;;;;;;;;;2074156;28;1234;-81
2021/10/26 00:09:11;;;;;;;;;;;;;;;;;;2066192;28;1229;-80
2021/10/26 00:10:13;;;;;;;;;;;;;;;;;;2074674;28;1353;-80
2021/10/26 00:11:15;;;;;;;;;;;;;;;;;;2085554;28;2098;-81
2021/10/26 00:12:16;;;;;;;;;;;;;;;;;;2090465;28;1271;-80
2021/10/26 00:13:17;;;;;;;;;;;;;;;;;;2075342;28;1878;-80
2021/10/26 00:14:19;;;;;;;;;;;;;;;;;;2066591;28;1233;-80
2021/10/26 00:15:20;;;;;;;;;;;;;;;;;;2075335;28;1355;-80
2021/10/26 00:16:22;;;;;;;;;;;;;;;;;;2082628;28;2084;-81
2021/10/26 00:17:22;;;;;;;;;;;;;;;;;;2076088;28;1527;-80
2021/10/26 00:18:24;;;;;;;;;;;;;;;;;;2076255;28;1365;-81
2021/10/26 00:19:26;;;;;;;;;;;;;;;;;;2076187;28;1305;-81
2021/10/26 00:20:27;;;;;;;;;;;;;;;;;;2076328;28;1238;-81
2021/10/26 00:21:29;;;;;;;;;;;;;;;;;;2084203;28;1260;-81
2021/10/26 00:22:31;;;;;;;;;;;;;;;;;;2084014;28;1172;-80
2021/10/26 00:23:31;;;;;;;;;;;;;;;;;;2083350;28;1658;-81
2021/10/26 00:24:33;;;;;;;;;;;;;;;;;;2084326;28;1212;-80
2021/10/26 00:25:36;;;;;;;;;;;;;;;;;;2083913;28;1857;-80
2021/10/26 00:26:37;;;;;;;;;;;;;;;;;;2088222;28;1909;-79
2021/10/26 00:27:39;;;;;;;;;;;;;;;;;;2076475;28;2091;-80
2021/10/26 00:28:40;;;;;;;;;;;;;;;;;;2067739;28;1248;-80
2021/10/26 00:29:41;;;;;;;;;;;;;;;;;;2075525;28;1259;-80
2021/10/26 00:30:43;;;;;;;;;;;;;;;;;;2076063;28;1555;-81
2021/10/26 00:31:45;;;;;;;;;;;;;;;;;;2076034;28;1204;-80
2021/10/26 00:32:47;;;;;;;;;;;;;;;;;;2084506;28;1746;-80
2021/10/26 00:33:48;;;;;;;;;;;;;;;;;;2083963;28;1179;-80
2021/10/26 00:34:50;;;;;;;;;;;;;;;;;;2076060;28;1328;-80
2021/10/26 00:35:51;;;;;;;;;;;;;;;;;;2086660;28;1915;-81
2021/10/26 00:36:56;;;;;;;;;;;;;;;;;;2092420;28;1208;-79
2021/10/26 00:38:00;;;;;;;;;;;;;;;;;;2083339;28;2065;-80
2021/10/26 00:39:02;;;;;;;;;;;;;;;;;;2092172;28;1314;-80
2021/10/26 00:40:03;;;;;;;;;;;;;;;;;;2092375;28;904;-80
2021/10/26 00:41:07;;;;;;;;;;;;;;;;;;2084348;28;1646;-80
2021/10/26 00:42:07;;;;;;;;;;;;;;;;;;2076236;28;1546;-80
2021/10/26 00:43:09;;;;;;;;;;;;;;;;;;2075403;28;1175;-80
2021/10/26 00:44:10;;;;;;;;;;;;;;;;;;2084200;28;931;-79
2021/10/26 00:45:12;;;;;;;;;;;;;;;;;;2083869;28;1586;-80
2021/10/26 00:46:13;;;;;;;;;;;;;;;;;;2089974;28;1310;-80
2021/10/26 00:47:15;;;;;;;;;;;;;;;;;;2092599;28;1241;-80
2021/10/26 00:48:16;;;;;;;;;;;;;;;;;;2082738;28;1294;-80
2021/10/26 00:49:19;;;;;;;;;;;;;;;;;;2084142;28;1250;-80
2021/10/26 00:50:20;;;;;;;;;;;;;;;;;;2091735;28;1299;-79
2021/10/26 00:51:22;;;;;;;;;;;;;;;;;;2083665;28;1860;-80
2021/10/26 00:52:23;;;;;;;;;;;;;;;;;;2083734;28;1626;-80
2021/10/26 00:53:26;;;;;;;;;;;;;;;;;;2083522;28;1251;-80
2021/10/26 00:54:27;;;;;;;;;;;;;;;;;;2084467;28;1235;-79
2021/10/26 00:55:32;;;;;;;;;;;;;;;;;;2092093;28;1560;-80
2021/10/26 00:56:34;;;;;;;;;;;;;;;;;;2092314;28;1662;-80
2021/10/26 00:57:37;;;;;;;;;;;;;;;;;;2091565;28;1582;-79
2021/10/26 00:58:40;;;;;;;;;;;;;;;;;;2084251;28;1187;-80
2021/10/26 00:59:42;;;;;;;;;;;;;;;;;;2083777;28;1516;-80
2021/10/26 01:00:44;;;;;;;;;;;;;;;;;;2082753;28;2027;-80
2021/10/26 01:01:46;;;;;;;;;;;;;;;;;;2075951;28;1563;-80
2021/10/26 01:02:48;;;;;;;;;;;;;;;;;;2076318;28;1997;-80
2021/10/26 01:04:11;;;;;;;;;;;;;;;;;;2086993;28;1573;-80
2021/10/26 01:05:12;;;;;;;;;;;;;;;;;;2075842;28;1646;-81
2021/10/26 01:06:14;;;;;;;;;;;;;;;;;;2075813;28;1287;-81
2021/10/26 01:07:15;;;;;;;;;;;;;;;;;;2084064;28;1910;-80
2021/10/26 01:08:17;;;;;;;;;;;;;;;;;;2082611;28;1894;-81
2021/10/26 01:09:18;;;;;;;;;;;;;;;;;;2083807;28;1217;-80
2021/10/26 01:10:20;;;;;;;;;;;;;;;;;;2092269;28;1519;-80
2021/10/26 01:11:20;;;;;;;;;;;;;;;;;;2082141;28;2145;-81
2021/10/26 01:12:29;;;;;;;;;;;;;;;;;;2076483;28;2083;-79
2021/10/26 01:13:30;;;;;;;;;;;;;;;;;;2076047;28;1304;-80
2021/10/26 01:14:32;;;;;;;;;;;;;;;;;;2084110;28;1178;-80
2021/10/26 01:15:39;;;;;;;;;;;;;;;;;;2093289;28;1494;-80
2021/10/26 01:17:03;;;;;;;;;;;;;;;;;;2092631;28;1443;-80
2021/10/26 01:18:04;;;;;;;;;;;;;;;;;;2084066;28;1250;-80
2021/10/26 01:19:05;;;;;;;;;;;;;;;;;;2075502;28;1259;-81
2021/10/26 01:20:09;;;;;;;;;;;;;;;;;;2084022;28;1329;-80
2021/10/26 01:21:12;;;;;;;;;;;;;;;;;;2091338;28;2029;-79
2021/10/26 01:22:14;;;;;;;;;;;;;;;;;;2083771;28;1283;-81
2021/10/26 01:23:16;;;;;;;;;;;;;;;;;;2075292;28;1413;-81
2021/10/26 01:24:17;;;;;;;;;;;;;;;;;;2075716;28;1691;-82
2021/10/26 01:25:19;;;;;;;;;;;;;;;;;;2075783;28;1374;-81
2021/10/26 01:26:21;;;;;;;;;;;;;;;;;;2083602;28;1530;-83
2021/10/26 01:27:24;;;;;;;;;;;;;;;;;;2083563;28;1996;-81
2021/10/26 01:28:28;;;;;;;;;;;;;;;;;;2076373;28;1255;-81
2021/10/26 01:29:30;;;;;;;;;;;;;;;;;;2083887;28;1617;-81
2021/10/26 01:30:34;;;;;;;;;;;;;;;;;;2083675;28;2015;-81
2021/10/26 01:31:56;;;;;;;;;;;;;;;;;;2078257;28;1063;-81
2021/10/26 01:33:05;;;;;;;;;;;;;;;;;;2078945;28;1249;-81
2021/10/26 01:34:21;;;;;;;;;;;;;;;;;;2077731;28;1462;-80
2021/10/26 01:35:23;;;;;;;;;;;;;;;;;;2075582;28;1298;-81
2021/10/26 01:36:25;;;;;;;;;;;;;;;;;;2076065;28;2015;-81
2021/10/26 01:37:29;;;;;;;;;;;;;;;;;;2083418;28;1204;-81
2021/10/26 01:38:32;;;;;;;;;;;;;;;;;;2075351;28;1409;-81
2021/10/26 01:39:33;;;;;;;;;;;;;;;;;;2067425;28;1419;-81
2021/10/26 01:40:35;;;;;;;;;;;;;;;;;;2075336;28;1312;-81
2021/10/26 01:41:36;;;;;;;;;;;;;;;;;;2083782;28;1383;-81
2021/10/26 01:42:38;;;;;;;;;;;;;;;;;;2083839;28;1913;-81
2021/10/26 01:43:39;;;;;;;;;;;;;;;;;;2075443;28;1280;-81
2021/10/26 01:44:41;;;;;;;;;;;;;;;;;;2067715;28;1355;-81
2021/10/26 01:45:52;;;;;;;;;;;;;;;;;;2079818;28;2064;-81
2021/10/26 01:47:06;;;;;;;;;;;;;;;;;;2083338;28;1975;-81
2021/10/26 01:48:07;;;;;;;;;;;;;;;;;;2075482;28;2042;-81
2021/10/26 01:49:09;;;;;;;;;;;;;;;;;;2075515;28;1282;-81
2021/10/26 01:50:10;;;;;;;;;;;;;;;;;;2075517;28;1221;-80
2021/10/26 01:51:14;;;;;;;;;;;;;;;;;;2074735;28;2096;-80
2021/10/26 01:52:15;;;;;;;;;;;;;;;;;;2075652;28;1185;-80
2021/10/26 01:53:17;;;;;;;;;;;;;;;;;;2075244;28;1339;-80
2021/10/26 01:54:18;;;;;;;;;;;;;;;;;;2075237;28;1301;-79
2021/10/26 01:55:20;;;;;;;;;;;;;;;;;;2075241;28;1306;-81
2021/10/26 01:56:23;;;;;;;;;;;;;;;;;;2069311;28;1937;-81
2021/10/26 01:57:35;;;;;;;;;;;;;;;;;;2077271;28;1311;-80
2021/10/26 01:58:43;;;;;;;;;;;;;;;;;;2091980;28;1539;-81
2021/10/26 01:59:57;;;;;;;;;;;;;;;;;;2083511;28;1354;-81
2021/10/26 02:00:58;;;;;;;;;;;;;;;;;;2067101;28;1272;-82
2021/10/26 02:02:00;;;;;;;;;;;;;;;;;;2067196;28;1409;-81
2021/10/26 02:03:06;;;;;;;;;;;;;;;;;;2071322;28;1193;-81
2021/10/26 02:04:09;;;;;;;;;;;;;;;;;;2075566;28;1419;-81
2021/10/26 02:05:10;;;;;;;;;;;;;;;;;;2075337;28;1198;-81
2021/10/26 02:06:12;;;;;;;;;;;;;;;;;;2075262;28;1339;-81
2021/10/26 02:07:14;;;;;;;;;;;;;;;;;;2083323;28;1910;-81
2021/10/26 02:08:18;;;;;;;;;;;;;;;;;;2082228;28;2121;-80
2021/10/26 02:09:19;;;;;;;;;;;;;;;;;;2082541;28;1362;-81
2021/10/26 02:10:21;;;;;;;;;;;;;;;;;;2083480;28;1243;-80
2021/10/26 02:11:22;;;;;;;;;;;;;;;;;;2076955;28;1865;-81
2021/10/26 02:12:24;;;;;;;;;;;;;;;;;;2075208;28;1652;-81
2021/10/26 02:13:28;;;;;;;;;;;;;;;;;;2075189;28;1256;-82
2021/10/26 02:14:30;;;;;;;;;;;;;;;;;;2075246;28;1320;-80
2021/10/26 02:15:31;;;;;;;;;;;;;;;;;;2083592;28;1536;-81
2021/10/26 02:16:35;;;;;;;;;;;;;;;;;;2083035;28;1248;-81
2021/10/26 02:17:37;;;;;;;;;;;;;;;;;;2082463;28;2010;-81
2021/10/26 02:18:42;;;;;;;;;;;;;;;;;;2075389;28;1318;-81
2021/10/26 02:19:44;;;;;;;;;;;;;;;;;;2075261;28;799;-81
2021/10/26 02:20:47;;;;;;;;;;;;;;;;;;2067518;28;1208;-81
2021/10/26 02:21:49;;;;;;;;;;;;;;;;;;2059677;28;1437;-81
2021/10/26 02:22:54;;;;;;;;;;;;;;;;;;2075636;28;1404;-81
2021/10/26 02:23:56;;;;;;;;;;;;;;;;;;2075178;28;1108;-81
2021/10/26 02:24:58;;;;;;;;;;;;;;;;;;2083188;28;1584;-81
2021/10/26 02:25:59;;;;;;;;;;;;;;;;;;2083889;28;1221;-81
2021/10/26 02:27:02;;;;;;;;;;;;;;;;;;2074608;28;1979;-81
2021/10/26 02:28:03;;;;;;;;;;;;;;;;;;2075936;28;2018;-81
2021/10/26 02:29:05;;;;;;;;;;;;;;;;;;2074906;28;1260;-81
2021/10/26 02:30:11;;;;;;;;;;;;;;;;;;2075931;28;1244;-81
2021/10/26 02:31:11;;;;;;;;;;;;;;;;;;2074959;28;1434;-81
2021/10/26 02:32:13;;;;;;;;;;;;;;;;;;2075435;28;1312;-81
2021/10/26 02:33:14;;;;;;;;;;;;;;;;;;2073309;28;1141;-81
2021/10/26 02:34:16;;;;;;;;;;;;;;;;;;2083561;28;1164;-81
2021/10/26 02:35:17;;;;;;;;;;;;;;;;;;2083294;28;1303;-80
2021/10/26 02:36:19;;;;;;;;;;;;;;;;;;2075169;28;1278;-80
2021/10/26 02:37:19;;;;;;;;;;;;;;;;;;2074484;28;1334;-80
2021/10/26 02:38:23;;;;;;;;;;;;;;;;;;2082254;28;1276;-80
2021/10/26 02:39:24;;;;;;;;;;;;;;;;;;2082997;28;1438;-80
2021/10/26 02:40:26;;;;;;;;;;;;;;;;;;2083403;28;1279;-80
2021/10/26 02:41:27;;;;;;;;;;;;;;;;;;2074442;28;1277;-80
2021/10/26 02:42:29;;;;;;;;;;;;;;;;;;2083199;28;1349;-79
2021/10/26 02:43:30;;;;;;;;;;;;;;;;;;2074764;28;1325;-80
2021/10/26 02:44:32;;;;;;;;;;;;;;;;;;2066658;28;1307;-80
2021/10/26 02:45:33;;;;;;;;;;;;;;;;;;2074503;28;2094;-81
2021/10/26 02:46:37;;;;;;;;;;;;;;;;;;2083172;28;1275;-81
2021/10/26 02:47:39;;;;;;;;;;;;;;;;;;2076485;28;1918;-80
2021/10/26 02:48:42;;;;;;;;;;;;;;;;;;2083270;28;1267;-80
2021/10/26 02:49:43;;;;;;;;;;;;;;;;;;2091155;28;1327;-80
2021/10/26 02:50:44;;;;;;;;;;;;;;;;;;2082561;28;1584;-80
2021/10/26 02:51:46;;;;;;;;;;;;;;;;;;2074749;28;1286;-80
2021/10/26 02:52:47;;;;;;;;;;;;;;;;;;2080654;28;1275;-80
2021/10/26 02:53:50;;;;;;;;;;;;;;;;;;2082938;28;1259;-80
2021/10/26 02:54:51;;;;;;;;;;;;;;;;;;2074927;28;1399;-80
2021/10/26 02:55:53;;;;;;;;;;;;;;;;;;2066479;28;1369;-81
2021/10/26 02:56:54;;;;;;;;;;;;;;;;;;2074747;28;1244;-81
2021/10/26 02:57:56;;;;;;;;;;;;;;;;;;2078704;28;1467;-81
2021/10/26 02:58:58;;;;;;;;;;;;;;;;;;2083026;28;1204;-80
2021/10/26 03:00:01;;;;;;;;;;;;;;;;;;2083053;28;1343;-80
2021/10/26 03:01:02;;;;;;;;;;;;;;;;;;2082639;28;2115;-81
2021/10/26 03:02:04;;;;;;;;;;;;;;;;;;2074696;28;1442;-81
2021/10/26 03:03:05;;;;;;;;;;;;;;;;;;2074782;28;2015;-81
2021/10/26 03:04:07;;;;;;;;;;;;;;;;;;2083099;28;1220;-80
2021/10/26 03:05:08;;;;;;;;;;;;;;;;;;2082784;28;1703;-81
2021/10/26 03:06:10;;;;;;;;;;;;;;;;;;2082993;28;1390;-81
2021/10/26 03:07:11;;;;;;;;;;;;;;;;;;2082486;28;1914;-80
2021/10/26 03:08:13;;;;;;;;;;;;;;;;;;2080879;28;2100;-80
2021/10/26 03:09:15;;;;;;;;;;;;;;;;;;2082925;28;1283;-81
2021/10/26 03:10:16;;;;;;;;;;;;;;;;;;2083144;28;1248;-81
2021/10/26 03:11:17;;;;;;;;;;;;;;;;;;2068500;28;1334;-81
2021/10/26 03:12:20;;;;;;;;;;;;;;;;;;2066833;28;1364;-80
2021/10/26 03:13:20;;;;;;;;;;;;;;;;;;2073951;28;1999;-81
2021/10/26 03:14:22;;;;;;;;;;;;;;;;;;2074192;28;1421;-80
2021/10/26 03:15:23;;;;;;;;;;;;;;;;;;2066750;28;1336;-81
2021/10/26 03:16:25;;;;;;;;;;;;;;;;;;2066430;28;1409;-81
2021/10/26 03:17:26;;;;;;;;;;;;;;;;;;2074551;28;2034;-80
2021/10/26 03:18:46;;;;;;;;;;;;;;;;;;2069026;28;1476;-80
2021/10/26 03:19:46;;;;;;;;;;;;;;;;;;2074746;28;1312;-80
2021/10/26 03:20:48;;;;;;;;;;;;;;;;;;2082261;28;1836;-80
2021/10/26 03:21:50;;;;;;;;;;;;;;;;;;2074744;28;1168;-80
2021/10/26 03:22:51;;;;;;;;;;;;;;;;;;2078224;28;2119;-80
2021/10/26 03:23:53;;;;;;;;;;;;;;;;;;2082798;28;1495;-80
2021/10/26 03:24:56;;;;;;;;;;;;;;;;;;2082001;28;1291;-80
2021/10/26 03:25:57;;;;;;;;;;;;;;;;;;2090587;28;1400;-80
2021/10/26 03:26:58;;;;;;;;;;;;;;;;;;2090775;28;1573;-80
2021/10/26 03:28:00;;;;;;;;;;;;;;;;;;2082580;28;1906;-80
2021/10/26 03:29:01;;;;;;;;;;;;;;;;;;2074483;28;1315;-80
2021/10/26 03:30:04;;;;;;;;;;;;;;;;;;2066452;28;1525;-80
2021/10/26 03:31:04;;;;;;;;;;;;;;;;;;2078930;28;1892;-80
2021/10/26 03:32:27;;;;;;;;;;;;;;;;;;2082899;28;1324;-80
2021/10/26 03:33:47;;;;;;;;;;;;;;;;;;2082944;28;630;-80
2021/10/26 03:34:48;;;;;;;;;;;;;;;;;;2082397;28;1207;-80
2021/10/26 03:35:53;;;;;;;;;;;;;;;;;;2074521;28;1319;-80
2021/10/26 03:36:54;;;;;;;;;;;;;;;;;;2066964;28;1570;-80
2021/10/26 03:37:57;;;;;;;;;;;;;;;;;;2074524;28;1237;-80
2021/10/26 03:38:59;;;;;;;;;;;;;;;;;;2066204;28;1916;-80
2021/10/26 03:40:02;;;;;;;;;;;;;;;;;;2066558;28;1284;-79
2021/10/26 03:41:04;;;;;;;;;;;;;;;;;;2070792;28;1383;-81
2021/10/26 03:42:04;;;;;;;;;;;;;;;;;;2066799;28;1606;-80
2021/10/26 03:43:07;;;;;;;;;;;;;;;;;;2066665;28;1455;-80
2021/10/26 03:44:07;;;;;;;;;;;;;;;;;;2074707;28;1004;-79
2021/10/26 03:45:10;;;;;;;;;;;;;;;;;;2074554;28;1749;-80
2021/10/26 03:46:14;;;;;;;;;;;;;;;;;;2074645;28;1151;-80
2021/10/26 03:47:16;;;;;;;;;;;;;;;;;;2074423;28;1480;-80
2021/10/26 03:48:19;;;;;;;;;;;;;;;;;;2073383;28;1907;-80
2021/10/26 03:49:22;;;;;;;;;;;;;;;;;;2081988;28;1473;-79
2021/10/26 03:50:22;;;;;;;;;;;;;;;;;;2074000;28;1209;-79
2021/10/26 03:51:24;;;;;;;;;;;;;;;;;;2074484;28;2044;-80
2021/10/26 03:52:25;;;;;;;;;;;;;;;;;;2074558;28;2046;-80
2021/10/26 03:53:28;;;;;;;;;;;;;;;;;;2074407;28;1246;-80
2021/10/26 03:54:29;;;;;;;;;;;;;;;;;;2082116;28;1632;-80
2021/10/26 03:55:32;;;;;;;;;;;;;;;;;;2074120;28;1694;-80
2021/10/26 03:56:33;;;;;;;;;;;;;;;;;;2066610;28;1086;-80
2021/10/26 03:57:38;;;;;;;;;;;;;;;;;;2074891;28;1415;-80
2021/10/26 03:58:41;;;;;;;;;;;;;;;;;;2066454;28;1174;-79
2021/10/26 03:59:53;;;;;;;;;;;;;;;;;;2069740;28;1456;-80
2021/10/26 04:00:54;;;;;;;;;;;;;;;;;;2077435;28;2004;-80
2021/10/26 04:02:08;;;;;;;;;;;;;;;;;;2075777;28;1284;-80
2021/10/26 04:03:08;;;;;;;;;;;;;;;;;;2077872;28;2097;-80
2021/10/26 04:04:10;;;;;;;;;;;;;;;;;;2074608;28;1454;-80
2021/10/26 04:05:17;;;;;;;;;;;;;;;;;;2066762;28;1275;-80
2021/10/26 04:06:22;;;;;;;;;;;;;;;;;;2068020;28;1374;-80
2021/10/26 04:07:24;;;;;;;;;;;;;;;;;;2066918;28;1231;-80
2021/10/26 04:08:28;;;;;;;;;;;;;;;;;;2065933;28;1985;-79
2021/10/26 04:09:44;;;;;;;;;;;;;;;;;;2066685;28;1436;-80
2021/10/26 04:10:48;;;;;;;;;;;;;;;;;;2068943;28;1866;-82
2021/10/26 04:11:54;;;;;;;;;;;;;;;;;;2050846;28;1387;-82
2021/10/26 04:12:55;;;;;;;;;;;;;;;;;;2052827;28;1359;-82
2021/10/26 04:13:57;;;;;;;;;;;;;;;;;;2074244;28;1353;-82
2021/10/26 04:14:58;;;;;;;;;;;;;;;;;;2074298;28;1430;-83
2021/10/26 04:16:00;;;;;;;;;;;;;;;;;;2066423;28;1466;-83
2021/10/26 04:17:02;;;;;;;;;;;;;;;;;;2066551;28;1317;-84
2021/10/26 04:18:04;;;;;;;;;;;;;;;;;;2066657;28;1534;-83
2021/10/26 04:19:06;;;;;;;;;;;;;;;;;;2083154;28;1279;-84
2021/10/26 04:20:07;;;;;;;;;;;;;;;;;;2074594;28;1206;-83
2021/10/26 04:21:09;;;;;;;;;;;;;;;;;;2066279;28;1326;-84
2021/10/26 04:22:20;;;;;;;;;;;;;;;;;;2067841;28;1536;-83
2021/10/26 04:23:22;;;;;;;;;;;;;;;;;;2075084;28;1247;-83
2021/10/26 04:24:24;;;;;;;;;;;;;;;;;;2082750;28;1531;-83
2021/10/26 04:25:25;;;;;;;;;;;;;;;;;;2074216;28;1372;-79
2021/10/26 04:26:28;;;;;;;;;;;;;;;;;;2074300;28;2070;-78
2021/10/26 04:27:31;;;;;;;;;;;;;;;;;;2074109;28;1454;-78
2021/10/26 04:28:33;;;;;;;;;;;;;;;;;;2066188;28;1973;-78
2021/10/26 04:29:35;;;;;;;;;;;;;;;;;;2066100;28;1333;-78
2021/10/26 04:30:37;;;;;;;;;;;;;;;;;;2066958;28;1862;-78
2021/10/26 04:31:39;;;;;;;;;;;;;;;;;;2074295;28;1252;-78
2021/10/26 04:32:40;;;;;;;;;;;;;;;;;;2068560;28;1875;-78
2021/10/26 04:33:45;;;;;;;;;;;;;;;;;;2082591;28;1350;-79
2021/10/26 04:34:48;;;;;;;;;;;;;;;;;;2082357;28;1584;-78
2021/10/26 04:35:50;;;;;;;;;;;;;;;;;;2073617;28;2012;-79
2021/10/26 04:36:51;;;;;;;;;;;;;;;;;;2074550;28;1434;-78
2021/10/26 04:37:53;;;;;;;;;;;;;;;;;;2073770;28;2053;-78
2021/10/26 04:38:54;;;;;;;;;;;;;;;;;;2074546;28;1708;-78
2021/10/26 04:39:56;;;;;;;;;;;;;;;;;;2081980;28;1311;-78
2021/10/26 04:40:58;;;;;;;;;;;;;;;;;;2070889;28;2060;-80
2021/10/26 04:42:07;;;;;;;;;;;;;;;;;;2075154;28;1344;-78
2021/10/26 04:43:09;;;;;;;;;;;;;;;;;;2082716;28;1514;-79
2021/10/26 04:44:10;;;;;;;;;;;;;;;;;;2074495;28;1370;-79
2021/10/26 04:45:12;;;;;;;;;;;;;;;;;;2074385;28;1422;-79
2021/10/26 04:46:13;;;;;;;;;;;;;;;;;;2082627;28;2050;-79
2021/10/26 04:47:21;;;;;;;;;;;;;;;;;;2082334;28;1413;-79
2021/10/26 04:48:22;;;;;;;;;;;;;;;;;;2081869;28;2002;-79
2021/10/26 04:49:25;;;;;;;;;;;;;;;;;;2074349;28;1517;-79
2021/10/26 04:50:30;;;;;;;;;;;;;;;;;;2074630;28;1287;-78
2021/10/26 04:51:31;;;;;;;;;;;;;;;;;;2074651;28;1308;-79
2021/10/26 04:52:32;;;;;;;;;;;;;;;;;;2083659;28;1869;-79
2021/10/26 04:53:34;;;;;;;;;;;;;;;;;;2082244;28;1334;-78
2021/10/26 04:54:35;;;;;;;;;;;;;;;;;;2082183;28;1152;-78
2021/10/26 04:55:42;;;;;;;;;;;;;;;;;;2075381;28;1964;-78
2021/10/26 04:56:43;;;;;;;;;;;;;;;;;;2082116;28;1347;-78
2021/10/26 04:58:06;;;;;;;;;;;;;;;;;;2082438;28;1490;-78
2021/10/26 04:59:16;;;;;;;;;;;;;;;;;;2082332;28;1188;-78
2021/10/26 05:00:17;;;;;;;;;;;;;;;;;;2074147;28;1286;-78
2021/10/26 05:01:18;;;;;;;;;;;;;;;;;;2075285;28;1829;-79
2021/10/26 05:02:20;;;;;;;;;;;;;;;;;;2075969;28;1338;-78
2021/10/26 05:03:20;;;;;;;;;;;;;;;;;;2075678;28;2095;-78
2021/10/26 05:04:23;;;;;;;;;;;;;;;;;;2084086;28;1577;-78
2021/10/26 05:05:24;;;;;;;;;;;;;;;;;;2075390;28;1520;-78
2021/10/26 05:06:26;;;;;;;;;;;;;;;;;;2075381;28;1857;-78
2021/10/26 05:07:27;;;;;;;;;;;;;;;;;;2076216;28;1834;-80
2021/10/26 05:08:30;;;;;;;;;;;;;;;;;;2083875;28;1918;-78
2021/10/26 05:09:32;;;;;;;;;;;;;;;;;;2083477;28;1161;-80
2021/10/26 05:10:34;;;;;;;;;;;;;;;;;;2083717;28;1412;-79
2021/10/26 05:11:35;;;;;;;;;;;;;;;;;;2075394;28;1298;-79
2021/10/26 05:12:37;;;;;;;;;;;;;;;;;;2069417;28;2052;-78
2021/10/26 05:13:39;;;;;;;;;;;;;;;;;;2075630;28;1465;-78
2021/10/26 05:14:59;;;;;;;;;;;;;;;;;;2081506;28;618;-79
2021/10/26 05:16:28;;;;;;;;;;;;;;;;;;2076327;28;1336;-78
2021/10/26 05:17:49;;;;;;;;;;;;;;;;;;2078580;28;1814;-78
2021/10/26 05:19:10;;;;;;;;;;;;;;;;;;2084320;28;603;-79
2021/10/26 05:20:22;;;;;;;;;;;;;;;;;;2084038;28;820;-78
2021/10/26 05:21:40;;;;;;;;;;;;;;;;;;2079519;28;1642;-78
2021/10/26 05:23:02;;;;;;;;;;;;;;;;;;2079420;28;1906;-79
2021/10/26 05:24:30;;;;;;;;;;;;;;;;;;2051210;29;1679;-78
2021/10/26 05:25:38;;;;;;;;;;;;;;;;;;2075257;28;1865;-78
2021/10/26 05:26:45;;;;;;;;;;;;;;;;;;2081896;28;1431;-78
2021/10/26 05:27:47;;;;;;;;;;;;;;;;;;2083026;28;1865;-78
2021/10/26 05:28:49;;;;;;;;;;;;;;;;;;2075805;28;1972;-78
2021/10/26 05:29:51;;;;;;;;;;;;;;;;;;2091616;28;1299;-78
2021/10/26 05:30:52;;;;;;;;;;;;;;;;;;2091801;28;1206;-79
2021/10/26 05:31:54;;;;;;;;;;;;;;;;;;2083366;28;1227;-78
2021/10/26 05:32:55;;;;;;;;;;;;;;;;;;2079791;28;1947;-79
2021/10/26 05:33:58;;;;;;;;;;;;;;;;;;2083632;28;1463;-78
2021/10/26 05:34:59;;;;;;;;;;;;;;;;;;2075524;28;1491;-79
2021/10/26 05:36:01;;;;;;;;;;;;;;;;;;2072050;28;1707;-79
2021/10/26 05:37:02;;;;;;;;;;;;;;;;;;2075267;28;1183;-79
2021/10/26 05:38:03;;;;;;;;;;;;;;;;;;2089185;28;1876;-78
2021/10/26 05:39:05;;;;;;;;;;;;;;;;;;2099650;28;1100;-78
2021/10/26 05:40:07;;;;;;;;;;;;;;;;;;2091840;28;1303;-79
2021/10/26 05:41:10;;;;;;;;;;;;;;;;;;2083353;28;2081;-78
2021/10/26 05:42:12;;;;;;;;;;;;;;;;;;2092257;28;1333;-78
2021/10/26 05:43:13;;;;;;;;;;;;;;;;;;2097466;28;2027;-78
2021/10/26 05:44:16;;;;;;;;;;;;;;;;;;2091943;28;1731;-79
2021/10/26 05:45:17;;;;;;;;;;;;;;;;;;2083976;28;1578;-78
2021/10/26 05:46:19;;;;;;;;;;;;;;;;;;2083226;28;2014;-78
2021/10/26 05:47:23;;;;;;;;;;;;;;;;;;2091640;28;1512;-78
2021/10/26 05:48:23;;;;;;;;;;;;;;;;;;2091658;28;1902;-78
2021/10/26 05:49:25;;;;;;;;;;;;;;;;;;2075450;28;1373;-78
2021/10/26 05:50:26;;;;;;;;;;;;;;;;;;2075601;28;1640;-78
2021/10/26 05:51:27;;;;;;;;;;;;;;;;;;2075238;28;1708;-79
2021/10/26 05:52:30;;;;;;;;;;;;;;;;;;2075736;28;2009;-78
2021/10/26 05:53:31;;;;;;;;;;;;;;;;;;2083293;28;820;-78
2021/10/26 05:54:33;;;;;;;;;;;;;;;;;;2092438;28;1560;-79
2021/10/26 05:55:34;;;;;;;;;;;;;;;;;;2087601;28;1744;-79
2021/10/26 05:56:36;;;;;;;;;;;;;;;;;;2080492;28;1332;-79
2021/10/26 05:57:37;;;;;;;;;;;;;;;;;;2082411;28;1846;-79
2021/10/26 05:58:38;;;;;;;;;;;;;;;;;;2077839;28;1626;-79
2021/10/26 05:59:41;;;;;;;;;;;;;;;;;;2088655;28;1261;-79
2021/10/26 06:00:43;;;;;;;;;;;;;;;;;;2078806;28;1319;-79
2021/10/26 06:01:47;;;;;;;;;;;;;;;;;;2067313;28;1519;-78
2021/10/26 06:02:49;;;;;;;;;;;;;;;;;;2082972;28;1660;-79
2021/10/26 06:03:50;;;;;;;;;;;;;;;;;;2091511;28;1409;-78
2021/10/26 06:04:53;;;;;;;;;;;;;;;;;;2089693;28;1245;-79
2021/10/26 06:05:53;;;;;;;;;;;;;;;;;;2082473;28;1420;-79
2021/10/26 06:06:56;;;;;;;;;;;;;;;;;;2074641;28;1619;-79
2021/10/26 06:07:57;;;;;;;;;;;;;;;;;;2079835;28;1773;-78
2021/10/26 06:08:59;;;;;;;;;;;;;;;;;;2083059;28;1971;-79
2021/10/26 06:09:59;;;;;;;;;;;;;;;;;;2083073;28;1292;-79
2021/10/26 06:11:07;;;;;;;;;;;;;;;;;;2085904;28;1677;-78
2021/10/26 06:12:11;;;;;;;;;;;;;;;;;;2083922;28;1369;-78
2021/10/26 06:13:19;;;;;;;;;;;;;;;;;;2090738;28;1911;-79
2021/10/26 06:14:20;;;;;;;;;;;;;;;;;;2083868;28;1321;-78
2021/10/26 06:15:25;;;;;;;;;;;;;;;;;;2078242;28;1392;-78
2021/10/26 06:16:27;;;;;;;;;;;;;;;;;;2089244;28;1693;-78
2021/10/26 06:17:29;;;;;;;;;;;;;;;;;;2083582;28;1661;-80
2021/10/26 06:18:31;;;;;;;;;;;;;;;;;;2074972;28;1755;-78
2021/10/26 06:19:32;;;;;;;;;;;;;;;;;;2088651;28;1876;-78
2021/10/26 06:20:34;;;;;;;;;;;;;;;;;;2097888;28;1680;-78
2021/10/26 06:21:35;;;;;;;;;;;;;;;;;;2074563;28;1716;-78
2021/10/26 06:22:36;;;;;;;;;;;;;;;;;;2078496;28;1288;-78
2021/10/26 06:23:39;;;;;;;;;;;;;;;;;;2082702;28;1552;-78
2021/10/26 06:24:42;;;;;;;;;;;;;;;;;;2075431;28;1393;-78
2021/10/26 06:25:44;;;;;;;;;;;;;;;;;;2067952;28;1735;-78
2021/10/26 06:27:04;;;;;;;;;;;;;;;;;;2077704;28;1530;-79
2021/10/26 06:28:05;;;;;;;;;;;;;;;;;;2088301;28;1921;-79
2021/10/26 06:29:07;;;;;;;;;;;;;;;;;;2082417;28;1898;-78
2021/10/26 06:30:17;;;;;;;;;;;;;;;;;;2082034;28;1828;-78
2021/10/26 06:31:27;;;;;;;;;;;;;;;;;;2081457;28;1844;-79
2021/10/26 06:32:28;;;;;;;;;;;;;;;;;;2091427;28;1745;-78
2021/10/26 06:33:30;;;;;;;;;;;;;;;;;;2090809;28;1402;-79
2021/10/26 06:34:35;;;;;;;;;;;;;;;;;;2069806;28;1314;-79
2021/10/26 06:35:37;;;;;;;;;;;;;;;;;;2067092;28;1892;-80
2021/10/26 06:36:38;;;;;;;;;;;;;;;;;;2075182;28;1360;-79
2021/10/26 06:37:42;;;;;;;;;;;;;;;;;;2079669;28;1644;-79
2021/10/26 06:38:44;;;;;;;;;;;;;;;;;;2088693;28;1662;-80
2021/10/26 06:39:45;;;;;;;;;;;;;;;;;;2099580;28;1210;-80
2021/10/26 06:40:47;;;;;;;;;;;;;;;;;;2082410;28;1999;-79
2021/10/26 06:42:04;;;;;;;;;;;;;;;;;;2085623;28;1337;-78
2021/10/26 06:43:24;;;;;;;;;;;;;;;;;;2099753;28;1829;-80
2021/10/26 06:44:44;;;;;;;;;;;;;;;;;;2086383;28;1054;-80
2021/10/26 06:46:05;;;;;;;;;;;;;;;;;;2086770;28;1241;-80
2021/10/26 06:47:26;;;;;;;;;;;;;;;;;;2083601;28;1721;-80
2021/10/26 06:48:47;;;;;;;;;;;;;;;;;;2086560;28;1971;-80
2021/10/26 06:50:07;;;;;;;;;;;;;;;;;;2084222;28;1127;-80
2021/10/26 06:51:28;;;;;;;;;;;;;;;;;;2089781;28;2052;-80
2021/10/26 06:52:49;;;;;;;;;;;;;;;;;;2089423;28;1740;-81
2021/10/26 06:54:11;;;;;;;;;;;;;;;;;;2083511;28;1588;-80
2021/10/26 06:55:31;;;;;;;;;;;;;;;;;;2085611;28;1728;-79
2021/10/26 06:56:52;;;;;;;;;;;;;;;;;;2090955;28;1043;-77
2021/10/26 06:58:13;;;;;;;;;;;;;;;;;;2084759;28;1696;-77
2021/10/26 06:59:34;;;;;;;;;;;;;;;;;;2083949;28;1127;-77
2021/10/26 07:01:06;;;;;;;;;;;;;;;;;;2087965;28;1720;-77
2021/10/26 07:02:30;;;;;;;;;;;;;;;;;;2089046;28;1659;-80
2021/10/26 07:03:52;;;;;;;;;;;;;;;;;;2083860;28;1571;-80
2021/10/26 07:05:16;;;;;;;;;;;;;;;;;;2082864;28;1313;-77
2021/10/26 07:06:37;;;;;;;;;;;;;;;;;;2086153;28;1391;-77
2021/10/26 07:07:57;;;;;;;;;;;;;;;;;;2087689;28;1135;-79
2021/10/26 07:09:01;;;;;;;;;;;;;;;;;;2086830;28;1977;-79
2021/10/26 07:10:08;;;;;;;;;;;;;;;;;;2085409;28;1446;-79
2021/10/26 07:11:13;;;;;;;;;;;;;;;;;;2095923;28;1830;-79
2021/10/26 07:12:13;;;;;;;;;;;;;;;;;;2090644;28;1400;-78
2021/10/26 07:13:15;;;;;;;;;;;;;;;;;;2082331;28;2025;-78
2021/10/26 07:14:17;;;;;;;;;;;;;;;;;;2090884;28;1741;-78
2021/10/26 07:15:18;;;;;;;;;;;;;;;;;;2090864;28;1272;-78
2021/10/26 07:16:19;;;;;;;;;;;;;;;;;;2087442;28;1677;-79
2021/10/26 07:17:23;;;;;;;;;;;;;;;;;;2077233;28;1377;-78
2021/10/26 07:18:28;;;;;;;;;;;;;;;;;;2080108;28;1336;-78
2021/10/26 07:19:29;;;;;;;;;;;;;;;;;;2088042;28;1266;-78
2021/10/26 07:20:49;;;;;;;;;;;;;;;;;;2094563;28;1688;-78
2021/10/26 07:22:17;;;;;;;;;;;;;;;;;;2084837;28;1220;-78
2021/10/26 07:23:19;;;;;;;;;;;;;;;;;;2084747;28;1284;-78
2021/10/26 07:24:39;;;;;;;;;;;;;;;;;;2087186;28;1035;-78
2021/10/26 07:25:45;;;;;;;;;;;;;;;;;;2084242;28;1729;-79
2021/10/26 07:26:46;;;;;;;;;;;;;;;;;;2081961;28;1368;-79